West Hills, California
Current Conditions -  °F | °C
As of 6:51 PM on Monday 22 Dec 2014 (Local Time) from KVNY Reporting Station
Clear Clear  
Wind Chill: 73°   Ceiling: Unl
Heat Index: 73°   Visibility: 10mi
Dew Point: 35°   Wind: 16mph
Humidity: 25%   Direction: 340°NNW
Pressure: 29.96"   Gusts: NA
Location:  34.2°N, 118.64°W
Report Text: KVNY 230251Z 34014KT 10SM CLR 23/02 A2996 RMK AO2 SLP138 T02280017 53007
Loading
Personal Weather Stations






























Interactive Weather Map New forecast layout! Learn more

10-Day Weather Forecast

Advertisements
Track Severe Weather on mobile